Time;durP1;ratioP1;P1;durP2;ratioP2;P2;SDS_P1;SDS_P2;PMS_P1;PMS_P2;Temp;Humidity;BMP_temperature;BMP_pressure;BME280_temperature;BME280_humidity;BME280_pressure;Samples;Min_cycle;Max_cycle;Signal;HPM_P1;HPM_P2
2022/08/11 00:03:23;;;;;;;;;;;24.70;32.70;;;22.60;33.30;101990.69;12253007;19;19999;-87
2022/08/11 00:07:25;;;;;;;;;;;24.70;32.70;;;22.94;33.58;102049.84;12255915;19;19914;-87
2022/08/11 00:11:35;;;;;;;;;;;24.80;32.80;;;22.77;33.34;102026.50;12254882;19;19958;-88
2022/08/11 00:15:42;;;;;;;;;;;24.50;32.70;;;22.81;33.64;102043.88;12259188;19;19925;-88
2022/08/11 00:19:46;;;;;;;;;;;24.50;32.70;;;22.70;33.63;102035.97;12257382;19;19925;-87
2022/08/11 00:23:56;;;;;;;;;;;24.40;32.80;;;22.66;33.61;102046.06;12254466;19;19924;-88
2022/08/11 00:27:58;;;;;;;;;;;24.40;32.80;;;22.47;33.71;102016.66;12256881;19;19907;-88
2022/08/11 00:32:02;;;;;;;;;;;24.40;32.90;;;22.46;33.83;102026.44;12254301;19;19919;-87
2022/08/11 00:36:05;;;;;;;;;;;24.30;32.90;;;22.53;33.75;102053.41;12256798;19;20301;-87
2022/08/11 00:40:13;;;;;;;;;;;24.30;32.90;;;22.43;33.87;102061.31;12254289;19;20346;-87
2022/08/11 00:44:35;;;;;;;;;;;24.10;33.00;;;22.39;34.13;102067.03;12250525;19;20254;-87
2022/08/11 00:48:59;;;;;;;;;;;24.10;33.10;;;22.31;34.08;102068.53;12254305;19;19923;-88
2022/08/11 00:53:20;;;;;;;;;;;24.30;33.20;;;22.23;33.88;102063.00;12252377;19;19925;-87
2022/08/11 00:57:59;;;;;;;;;;;24.00;33.10;;;22.14;33.96;102062.88;12254008;19;20337;-87
2022/08/11 01:02:04;;;;;;;;;;;23.90;33.10;;;22.06;34.02;102059.06;12251133;19;19951;-88
2022/08/11 01:06:11;;;;;;;;;;;23.80;33.20;;;22.00;34.28;102054.22;12253977;19;19911;-88
2022/08/11 01:10:54;;;;;;;;;;;23.80;33.20;;;21.92;34.37;102062.00;12248339;19;19970;-87
2022/08/11 01:15:25;;;;;;;;;;;23.70;33.30;;;21.74;34.23;102042.22;12253129;19;19926;-87
2022/08/11 01:20:01;;;;;;;;;;;23.70;33.30;;;21.59;34.36;102028.38;12250415;19;19931;-88
2022/08/11 01:24:32;;;;;;;;;;;23.50;33.30;;;21.69;34.26;102065.69;12251557;19;19951;-88
2022/08/11 01:28:59;;;;;;;;;;;23.50;33.40;;;21.62;34.17;102068.00;12254299;19;20341;-88
2022/08/11 01:33:38;;;;;;;;;;;23.40;33.50;;;21.55;34.26;102069.44;12252268;19;19947;-88
2022/08/11 01:37:43;;;;;;;;;;;23.30;33.50;;;21.47;34.67;102059.47;12256825;19;19955;-88
2022/08/11 01:46:31;;;;;;;;;;;23.20;33.70;;;21.26;34.60;102042.53;12251479;19;19919;-88
2022/08/11 01:50:59;;;;;;;;;;;23.10;33.60;;;21.28;34.36;102059.19;12251486;19;19929;-88
2022/08/11 01:55:22;;;;;;;;;;;23.00;33.60;;;21.27;34.63;102066.31;12252928;19;19922;-87
2022/08/11 01:59:33;;;;;;;;;;;23.00;33.60;;;21.18;34.88;102057.25;12249323;19;19907;-87
2022/08/11 02:03:46;;;;;;;;;;;23.00;33.70;;;21.15;34.98;102057.50;12249123;19;20296;-88
2022/08/11 02:08:37;;;;;;;;;;;22.90;33.70;;;21.07;35.02;102059.91;12251368;19;19915;-88
2022/08/11 02:12:55;;;;;;;;;;;22.80;33.70;;;20.97;34.78;102056.28;12247606;19;19918;-88
2022/08/11 02:17:21;;;;;;;;;;;22.80;33.80;;;20.93;34.72;102052.19;12249838;19;19921;-88
2022/08/11 02:26:19;;;;;;;;;;;22.70;33.90;;;20.74;35.04;102037.69;12263628;19;19923;-88
2022/08/11 02:30:24;;;;;;;;;;;22.60;33.90;;;20.68;34.81;102042.59;12261165;19;20343;-87
2022/08/11 02:34:54;;;;;;;;;;;22.50;33.90;;;20.70;34.78;102054.81;12260907;19;19966;-88
2022/08/11 02:39:08;;;;;;;;;;;22.50;33.90;;;20.59;35.07;102038.03;12262120;19;19919;-88
2022/08/11 02:43:40;;;;;;;;;;;22.50;33.90;;;20.43;35.41;102025.88;12259176;19;19930;-87
2022/08/11 02:52:21;;;;;;;;;;;22.50;34.00;;;20.37;35.18;102034.31;12255372;19;19915;-87
2022/08/11 02:56:44;;;;;;;;;;;22.20;34.00;;;20.36;35.49;102035.28;12258762;19;19929;-87
2022/08/11 03:00:55;;;;;;;;;;;22.20;34.00;;;20.21;35.24;102029.31;12256054;19;19944;-87
2022/08/11 03:04:57;;;;;;;;;;;22.10;34.10;;;20.23;35.47;102040.66;12256136;19;19919;-89
2022/08/11 03:09:23;;;;;;;;;;;22.10;34.10;;;20.01;35.19;102014.91;12258518;19;19987;-87
2022/08/11 03:18:27;;;;;;;;;;;21.90;34.20;;;19.98;35.41;102046.09;12256060;19;19929;-88
2022/08/11 03:22:33;;;;;;;;;;;21.90;34.20;;;19.82;35.38;102025.16;12252470;19;19928;-87
2022/08/11 03:26:57;;;;;;;;;;;21.80;34.20;;;19.81;35.73;102032.28;12256523;19;19958;-88
2022/08/11 03:31:23;;;;;;;;;;;21.70;34.30;;;19.82;35.84;102047.25;12254096;19;19955;-87
2022/08/11 03:35:26;;;;;;;;;;;21.70;34.40;;;19.68;35.66;102039.44;12255280;19;19919;-87
2022/08/11 03:39:47;;;;;;;;;;;21.60;34.40;;;19.53;35.62;102025.47;12255486;19;19933;-87
2022/08/11 03:44:09;;;;;;;;;;;21.50;34.40;;;19.70;35.58;102057.88;12253116;19;19971;-87
2022/08/11 03:48:28;;;;;;;;;;;21.50;34.50;;;19.24;35.95;101990.47;12256397;19;19911;-88
2022/08/11 03:52:51;;;;;;;;;;;21.50;34.40;;;19.55;36.06;102051.84;12250564;19;20012;-87
2022/08/11 03:57:26;;;;;;;;;;;21.40;34.40;;;19.42;35.76;102044.78;12256555;19;19914;-87
2022/08/11 04:02:03;;;;;;;;;;;21.40;34.60;;;19.42;36.20;102049.25;12252354;19;19926;-88
2022/08/11 04:06:26;;;;;;;;;;;21.30;34.60;;;19.39;36.09;102055.63;12256342;19;19935;-87
2022/08/11 04:10:50;;;;;;;;;;;21.20;34.60;;;19.34;36.12;102048.94;12250580;19;19930;-87
2022/08/11 04:19:49;;;;;;;;;;;21.20;34.70;;;19.25;36.32;102050.44;12252134;19;19919;-87
2022/08/11 04:24:23;;;;;;;;;;;21.10;34.70;;;19.09;36.23;102036.56;12249082;19;19915;-88
2022/08/11 04:29:03;;;;;;;;;;;21.10;34.70;;;19.11;36.43;102061.16;12252006;19;19922;-87
2022/08/11 04:33:35;;;;;;;;;;;21.00;34.70;;;18.96;36.13;102055.13;12250111;19;19942;-87
2022/08/11 04:38:07;;;;;;;;;;;21.00;34.70;;;18.85;36.43;102050.59;12249920;19;19914;-87
2022/08/11 05:05:34;;;;;;;;;;;20.60;35.10;;;18.72;36.78;102058.47;12250625;19;19922;-88
2022/08/11 05:10:07;;;;;;;;;;;20.70;35.20;;;18.74;36.51;102061.00;12249501;19;19918;-88
2022/08/11 05:37:11;;;;;;;;;;;20.70;35.80;;;18.91;37.10;102066.03;12245547;19;19911;-89
2022/08/11 05:58:39;;;;;;;;;;;21.10;36.00;;;19.56;37.33;102070.28;12245196;19;19911;-88
2022/08/11 06:02:54;;;;;;;;;;;21.50;36.20;;;19.56;37.17;102029.72;12240033;19;19953;-88
2022/08/11 06:07:08;;;;;;;;;;;21.40;36.10;;;20.28;37.27;102088.94;12244262;19;19993;-86
2022/08/11 06:11:09;;;;;;;;;;;21.90;36.40;;;20.62;37.25;102091.72;12239722;19;20297;-85
2022/08/11 06:15:12;;;;;;;;;;;22.00;36.20;;;20.82;37.26;102068.09;12242567;19;19950;-85
2022/08/11 06:19:14;;;;;;;;;;;22.30;36.30;;;21.19;37.36;102085.50;12245305;19;19983;-86
2022/08/11 06:23:18;;;;;;;;;;;22.80;36.30;;;21.47;37.17;102087.81;12243162;19;20043;-86
2022/08/11 06:27:21;;;;;;;;;;;22.90;36.00;;;21.64;37.20;102082.84;12246303;19;19911;-84
2022/08/11 06:31:23;;;;;;;;;;;23.10;35.90;;;21.86;37.22;102081.94;12241952;19;19998;-86
2022/08/11 06:35:52;;;;;;;;;;;23.40;35.90;;;22.19;36.76;102108.63;12245006;19;20361;-86
2022/08/11 06:40:04;;;;;;;;;;;23.60;35.70;;;22.25;37.25;102095.66;12244990;19;19915;-86
2022/08/11 06:44:12;;;;;;;;;;;23.90;35.50;;;22.47;37.20;102096.53;12242587;19;19919;-86
2022/08/11 06:48:20;;;;;;;;;;;24.00;35.30;;;22.53;36.97;102083.53;12246834;19;19914;-85
2022/08/11 06:52:34;;;;;;;;;;;24.20;35.30;;;22.69;36.82;102083.06;12243206;19;19914;-86
2022/08/11 07:01:00;;;;;;;;;;;24.50;35.20;;;22.88;36.96;102054.88;12239910;19;19919;-86
2022/08/11 07:05:14;;;;;;;;;;;24.70;35.10;;;23.11;36.77;102071.53;12237784;19;20269;-86
2022/08/11 07:31:49;;;;;;;;;;;25.60;35.10;;;24.16;36.60;102044.41;12250732;19;19931;-86
2022/08/11 07:35:54;;;;;;;;;;;25.80;35.20;;;24.56;36.81;102068.28;12253727;19;19918;-86
2022/08/11 07:39:57;;;;;;;;;;;26.10;35.20;;;24.76;36.94;102054.88;12252072;19;19915;-86
2022/08/11 07:44:08;;;;;;;;;;;26.20;35.30;;;24.80;36.67;102018.88;12251464;19;19915;-85
2022/08/11 07:52:35;;;;;;;;;;;26.70;35.20;;;25.67;36.74;102060.38;12252179;19;19911;-86
2022/08/11 07:56:38;;;;;;;;;;;27.00;35.20;;;26.03;36.54;102061.25;12256995;19;20254;-86
2022/08/11 08:18:10;;;;;;;;;;;28.70;35.00;;;27.77;35.93;102042.28;12253518;19;19914;-85
2022/08/11 08:22:16;;;;;;;;;;;29.00;34.90;;;28.04;35.73;102058.31;12249044;19;19915;-85
2022/08/11 08:30:51;;;;;;;;;;;29.60;34.70;;;28.71;35.76;102055.41;12250182;19;19943;-85
2022/08/11 08:34:54;;;;;;;;;;;29.90;34.70;;;28.89;35.63;102043.44;12249224;19;20348;-85
2022/08/11 08:38:55;;;;;;;;;;;30.40;34.70;;;29.19;35.48;102058.97;12249229;19;19923;-85
2022/08/11 08:43:11;;;;;;;;;;;30.40;34.30;;;29.27;35.23;102046.31;12247017;19;19923;-85
2022/08/11 08:47:17;;;;;;;;;;;30.70;34.30;;;29.20;35.34;102010.38;12250652;19;19915;-85
2022/08/11 08:51:35;;;;;;;;;;;30.90;34.20;;;29.53;35.16;102046.00;12248051;19;19917;-85
2022/08/11 08:55:38;;;;;;;;;;;31.00;33.90;;;29.72;35.09;102050.09;12250526;19;20270;-85
2022/08/11 08:59:43;;;;;;;;;;;31.20;33.30;;;29.80;34.81;102034.91;12250813;19;19938;-85
2022/08/11 09:03:45;;;;;;;;;;;31.30;33.70;;;29.96;34.93;102043.69;12248316;19;20266;-86
2022/08/11 09:07:49;;;;;;;;;;;31.40;33.60;;;30.07;34.73;102025.44;12250207;19;19922;-85
2022/08/11 09:11:52;;;;;;;;;;;31.60;33.30;;;30.19;34.48;102032.91;12245448;19;19927;-85
2022/08/11 09:15:54;;;;;;;;;;;31.70;33.40;;;29.98;34.32;101968.09;12247569;19;19925;-85
2022/08/11 09:19:59;;;;;;;;;;;31.90;33.50;;;30.47;34.32;102039.59;12247001;19;19919;-86
2022/08/11 09:28:22;;;;;;;;;;;32.00;33.30;;;30.65;34.03;102023.88;12249727;19;19939;-86
2022/08/11 09:32:25;;;;;;;;;;;32.10;33.20;;;30.73;34.10;102023.78;12243778;19;19936;-86
2022/08/11 09:40:49;;;;;;;;;;;32.40;33.20;;;31.02;33.80;102014.00;12246239;19;19982;-86
2022/08/11 09:44:51;;;;;;;;;;;32.50;33.20;;;31.12;33.99;102014.56;12244763;19;19926;-85
2022/08/11 09:48:59;;;;;;;;;;;32.60;33.10;;;31.26;33.48;102016.38;12245480;19;19986;-85
2022/08/11 09:53:05;;;;;;;;;;;32.70;32.70;;;31.10;33.41;102000.41;12244027;19;19915;-85
2022/08/11 10:01:30;;;;;;;;;;;32.80;32.70;;;31.14;33.47;102001.72;12243717;19;19911;-85
2022/08/11 10:10:01;;;;;;;;;;;32.80;32.70;;;31.28;33.41;101997.31;12248136;19;20301;-85
2022/08/11 10:18:41;;;;;;;;;;;32.90;32.20;;;31.40;33.16;101984.16;12249771;19;19944;-85
2022/08/11 10:27:04;;;;;;;;;;;32.90;31.90;;;31.36;33.10;101983.69;12248831;19;19918;-85
2022/08/11 10:35:31;;;;;;;;;;;32.90;32.00;;;31.50;32.82;101974.72;12249430;19;19931;-86
2022/08/11 10:39:33;;;;;;;;;;;33.00;31.70;;;31.53;32.79;101976.19;12250555;19;19923;-85
2022/08/11 10:43:38;;;;;;;;;;;33.10;31.90;;;31.65;32.71;101974.66;12251017;19;20602;-86
2022/08/11 10:47:39;;;;;;;;;;;33.00;32.00;;;31.78;32.58;101975.78;12258868;19;19939;-86
2022/08/11 11:00:24;;;;;;;;;;;33.40;31.80;;;32.16;31.92;101963.66;12257530;19;19935;-88
2022/08/11 11:04:46;;;;;;;;;;;33.40;32.10;;;32.22;32.11;101951.22;12253754;19;19931;-87
2022/08/11 11:08:54;;;;;;;;;;;33.60;31.50;;;32.25;31.80;101944.56;12258193;19;19911;-88
2022/08/11 11:21:49;;;;;;;;;;;33.70;30.40;;;32.02;31.63;101937.56;12251711;19;19914;-86
2022/08/11 11:26:09;;;;;;;;;;;33.60;31.00;;;32.01;31.61;101930.50;12253453;19;19927;-86
2022/08/11 11:30:13;;;;;;;;;;;33.60;31.20;;;32.10;31.39;101929.28;12248485;19;19962;-85
2022/08/11 11:34:53;;;;;;;;;;;33.60;31.10;;;32.25;31.38;101931.06;12253199;19;19923;-86
2022/08/11 11:38:55;;;;;;;;;;;33.70;30.80;;;32.30;31.16;101931.31;12251616;19;19947;-86
2022/08/11 11:42:58;;;;;;;;;;;33.70;31.40;;;32.34;30.87;101921.75;12245471;19;20341;-86
2022/08/11 11:47:00;;;;;;;;;;;33.70;31.30;;;32.28;30.98;101901.75;12251274;19;20393;-85
2022/08/11 11:51:02;;;;;;;;;;;33.80;30.80;;;32.25;31.27;101880.53;12246090;19;20344;-85
2022/08/11 11:55:05;;;;;;;;;;;33.90;30.00;;;32.48;31.24;101912.69;12248200;19;19940;-84
2022/08/11 12:03:26;;;;;;;;;;;34.00;30.50;;;32.58;31.04;101913.16;12248867;19;19922;-85
2022/08/11 12:17:09;;;;;;;;;;;34.10;30.70;;;32.66;30.40;101895.91;12252547;19;19932;-87
2022/08/11 12:36:07;;;;;;;;;;;34.10;30.60;;;32.12;30.28;101773.16;12221947;19;19935;-86
2022/08/11 12:53:17;;;;;;;;;;;34.20;30.00;;;32.72;29.58;101854.50;12246547;19;19918;-86
2022/08/11 13:06:12;;;;;;;;;;;34.10;30.00;;;32.76;29.88;101827.91;12241421;19;20369;-86
2022/08/11 13:12:46;;;;;;;;;;;34.20;30.00;;;32.83;29.62;101834.13;12243243;19;19915;-87
2022/08/11 13:14:40;;;;;;;;;;;34.20;30.20;;;32.76;29.47;101827.91;12249910;19;19915;-86
2022/08/11 13:18:43;;;;;;;;;;;34.20;29.50;;;32.76;29.48;101817.91;12251194;19;19921;-87
2022/08/11 13:22:51;;;;;;;;;;;34.30;30.00;;;32.86;28.89;101822.06;12247146;19;19922;-86
2022/08/11 13:26:53;;;;;;;;;;;34.30;29.80;;;32.81;28.89;101828.09;12245238;19;20330;-86
2022/08/11 13:31:10;;;;;;;;;;;34.30;29.90;;;32.78;29.24;101823.94;12243929;19;20258;-87
2022/08/11 13:35:14;;;;;;;;;;;34.20;29.70;;;32.81;29.25;101820.81;12247657;19;19943;-86
2022/08/11 13:39:15;;;;;;;;;;;34.20;29.70;;;32.94;28.78;101830.81;12245384;19;19914;-86
2022/08/11 13:43:19;;;;;;;;;;;34.30;29.00;;;32.99;29.07;101822.91;12245757;19;19982;-86
2022/08/11 13:47:22;;;;;;;;;;;34.30;29.60;;;32.69;28.89;101757.53;12248647;19;19915;-86
2022/08/11 13:51:30;;;;;;;;;;;34.30;29.50;;;33.02;28.88;101795.44;12245521;19;20278;-86
2022/08/11 13:55:31;;;;;;;;;;;34.40;29.80;;;33.17;28.91;101799.84;12244176;19;19922;-86
2022/08/11 13:59:33;;;;;;;;;;;34.50;29.40;;;33.01;28.58;101777.56;12245051;19;19915;-86
2022/08/11 14:03:39;;;;;;;;;;;34.50;27.80;;;33.06;28.86;101785.06;12242712;19;19927;-86
2022/08/11 14:07:54;;;;;;;;;;;34.50;29.40;;;33.14;28.44;101802.97;12247463;19;20309;-86
2022/08/11 14:16:41;;;;;;;;;;;34.50;29.10;;;33.07;28.37;101770.47;12249366;19;19921;-85
2022/08/11 14:25:03;;;;;;;;;;;34.70;29.30;;;33.10;28.18;101780.06;12252947;19;19956;-86
2022/08/11 14:29:09;;;;;;;;;;;34.60;29.60;;;33.05;28.07;101784.25;12257062;19;20283;-86
2022/08/11 14:33:11;;;;;;;;;;;34.50;29.80;;;32.99;27.62;101787.72;12259188;19;20333;-86
2022/08/11 14:37:17;;;;;;;;;;;34.40;29.30;;;32.88;27.61;101765.88;12257914;19;20012;-86
2022/08/11 14:50:01;;;;;;;;;;;34.30;29.30;;;32.79;27.15;101768.78;12255728;19;19918;-86
2022/08/11 14:58:25;;;;;;;;;;;34.20;29.00;;;32.81;27.11;101761.28;12254146;19;19987;-86
2022/08/11 15:06:49;;;;;;;;;;;34.20;29.20;;;32.89;27.11;101762.94;12253435;19;19923;-86
2022/08/11 15:10:50;;;;;;;;;;;34.20;29.20;;;32.91;27.01;101770.88;12251092;19;19910;-86
2022/08/11 15:19:14;;;;;;;;;;;34.20;28.90;;;32.90;27.28;101766.50;12253431;19;19915;-86
2022/08/11 15:49:28;;;;;;;;;;;34.10;28.90;;;32.79;26.34;101732.78;12250841;19;19922;-85
2022/08/11 15:53:39;;;;;;;;;;;34.10;29.00;;;32.70;26.33;101736.72;12251498;19;20023;-86
2022/08/11 16:06:32;;;;;;;;;;;34.00;28.60;;;32.53;26.69;101723.59;12250885;19;19911;-86
2022/08/11 16:10:34;;;;;;;;;;;33.90;28.60;;;32.53;26.50;101726.28;12249785;19;20254;-86
2022/08/11 16:19:01;;;;;;;;;;;33.80;27.50;;;32.38;26.46;101715.63;12257143;19;19923;-85
2022/08/11 16:23:05;;;;;;;;;;;33.80;28.60;;;32.40;26.14;101715.41;12254889;19;19940;-85
2022/08/11 16:27:07;;;;;;;;;;;33.80;28.70;;;32.27;26.37;101710.84;12256070;19;19919;-86
2022/08/11 16:31:10;;;;;;;;;;;33.70;28.50;;;32.25;26.22;101712.06;12253907;19;20337;-85
2022/08/11 16:39:38;;;;;;;;;;;33.60;28.40;;;32.10;26.02;101699.53;12252590;19;19922;-85
2022/08/11 16:48:06;;;;;;;;;;;33.50;28.50;;;31.96;26.61;101703.25;12253681;19;19932;-85
2022/08/11 16:52:10;;;;;;;;;;;33.40;28.60;;;31.86;25.97;101700.06;12251121;19;19926;-86
2022/08/11 16:56:22;;;;;;;;;;;33.30;28.50;;;31.86;26.25;101719.78;12251565;19;22094;-85
2022/08/11 17:00:25;;;;;;;;;;;33.20;28.10;;;31.73;26.10;101712.50;12253873;19;19942;-86
2022/08/11 17:13:11;;;;;;;;;;;33.00;28.40;;;31.47;26.51;101705.06;12253824;19;20297;-86
2022/08/11 17:17:22;;;;;;;;;;;33.00;28.40;;;31.41;26.28;101707.75;12249976;19;20380;-85
2022/08/11 17:21:28;;;;;;;;;;;32.90;28.40;;;31.37;26.13;101709.16;12250920;19;19919;-85
2022/08/11 17:25:32;;;;;;;;;;;32.80;28.50;;;31.23;26.06;101709.03;12247974;19;19915;-85
2022/08/11 17:29:49;;;;;;;;;;;32.70;28.40;;;31.15;26.42;101702.97;12248324;19;19935;-85
2022/08/11 17:38:16;;;;;;;;;;;32.60;28.40;;;30.60;26.15;101651.47;12248134;19;19922;-86
2022/08/11 17:51:11;;;;;;;;;;;32.30;28.50;;;30.59;26.56;101719.91;12250528;19;19932;-85
2022/08/11 17:59:52;;;;;;;;;;;32.00;28.40;;;30.20;26.70;101713.88;12252462;19;19979;-86
2022/08/11 18:03:55;;;;;;;;;;;31.80;28.40;;;30.08;26.50;101715.38;12254064;19;19974;-86
